Aviation Digital Data Service (ADDS)

Output produced by METARs form (1301 UTC 21 February 2018)
found at http://www.aviationweather.gov/adds/metars/
 
TAF AMD KWRB 201433Z 2014/2119 15006KT 9999 OVC003 QNH3034INS 
     BECMG 2015/2016 15009KT 9999 FEW007 OVC015 QNH3036INS 
     BECMG 2016/2017 15012KT 9999 SCT015 BKN035 QNH3032INS 
     BECMG 2021/2022 14006KT 9999 SCT010 BKN025 QNH3032INS 
     BECMG 2105/2106 13006KT 8000 BR BKN005 BKN010 QNH3035INS 
     BECMG 2114/2115 16012KT 9999 NSW FEW015 OVC025 QNH3038INS TX26/2021Z TN19/2014Z
       
TAF AMD KWRI 201413Z 2014/2116 20012KT 9999 OVC007 540206 QNH3025INS 
     TEMPO 2014/2019 OVC005 
     BECMG 2017/2019 22012G18KT 9999 FEW005 SCT020 QNH3028INS 
     BECMG 2023/2024 21006KT 9999 FEW020 SCT300 WS020/23040KT QNH3030INS 
     BECMG 2102/2103 22006KT 4800 BR FEW010 WS020/24040KT QNH3030INS 
     BECMG 2105/2106 22006KT 3200 BR BKN008 WS020/24040KT QNH3027INS TX20/2020Z TN11/2110Z